ICE113 BIKF-BGGH
Flight info
| Callsign | ICE113 |
|---|---|
| Flight time | 1h 59m |
| Altitude | 38000 |
| Route | SORIR2C SORIR DCT SOPEN DCT SABAG DCT NAPIB DCT INBAN DCT GETDA |
| Aircraft | B38M/M-SDE1FGHILORVWXY/HB1 |
Departure
| Time | 2026-04-20 19:43 |
|---|---|
| Airport | Keflavik International Airport (BIKF) |
Arrival
| Time | 2026-04-20 21:43 |
|---|---|
| Airport | Nuuk International Airport (BGGH) |
| Time | Latitude | Longitude | Altitude | Speed | Heading |
|---|---|---|---|---|---|
| 2026-04-20 19:04 | 63.99422 | -22.62485 | 145 ft | 0 kts | 90° |
| 2026-04-20 19:35 | 63.99422 | -22.62513 | 145 ft | 3 kts | 90° |
| 2026-04-20 19:35 | 63.99422 | -22.62564 | 145 ft | 3 kts | 90° |
| 2026-04-20 19:35 | 63.99422 | -22.62610 | 145 ft | 3 kts | 91° |
| 2026-04-20 19:36 | 63.99426 | -22.62651 | 145 ft | 3 kts | 137° |
| 2026-04-20 19:36 | 63.99442 | -22.62662 | 145 ft | 3 kts | 193° |
| 2026-04-20 19:36 | 63.99448 | -22.62659 | 145 ft | 3 kts | 202° |
| 2026-04-20 19:36 | 63.99427 | -22.62679 | 145 ft | 3 kts | 203° |
| 2026-04-20 19:37 | 63.99411 | -22.62695 | 145 ft | 0 kts | 204° |
| 2026-04-20 19:39 | 63.99392 | -22.62714 | 145 ft | 7 kts | 204° |
| 2026-04-20 19:39 | 63.99322 | -22.62746 | 145 ft | 12 kts | 180° |
| 2026-04-20 19:39 | 63.99240 | -22.62701 | 145 ft | 12 kts | 153° |
| 2026-04-20 19:40 | 63.99175 | -22.62587 | 145 ft | 13 kts | 104° |
| 2026-04-20 19:40 | 63.99173 | -22.62381 | 145 ft | 14 kts | 90° |
| 2026-04-20 19:40 | 63.99172 | -22.62160 | 145 ft | 14 kts | 90° |
| 2026-04-20 19:40 | 63.99172 | -22.61924 | 145 ft | 15 kts | 90° |
| 2026-04-20 19:41 | 63.99173 | -22.61702 | 149 ft | 13 kts | 89° |
| 2026-04-20 19:41 | 63.99173 | -22.61491 | 154 ft | 15 kts | 90° |
| 2026-04-20 19:41 | 63.99174 | -22.61225 | 160 ft | 19 kts | 90° |
| 2026-04-20 19:41 | 63.99174 | -22.60899 | 167 ft | 21 kts | 90° |
| 2026-04-20 19:42 | 63.99173 | -22.60623 | 177 ft | 12 kts | 92° |
| 2026-04-20 19:42 | 63.99148 | -22.60542 | 179 ft | 5 kts | 163° |
| 2026-04-20 19:42 | 63.99103 | -22.60540 | 180 ft | 17 kts | 180° |
| 2026-04-20 19:42 | 63.98772 | -22.60539 | 177 ft | 77 kts | 180° |
| 2026-04-20 19:43 | 63.98061 | -22.60539 | 174 ft | 125 kts | 180° |
| 2026-04-20 19:43 | 63.97056 | -22.60544 | 170 ft | 162 kts | 179° |
| 2026-04-20 19:43 | 63.95893 | -22.60557 | 532 ft | 167 kts | 178° |
| 2026-04-20 19:43 | 63.94703 | -22.60532 | 1050 ft | 175 kts | 179° |
| 2026-04-20 19:44 | 63.93477 | -22.60522 | 1543 ft | 179 kts | 179° |
| 2026-04-20 19:44 | 63.92197 | -22.60530 | 1957 ft | 192 kts | 179° |
| 2026-04-20 19:44 | 63.90795 | -22.60888 | 2103 ft | 220 kts | 201° |
| 2026-04-20 19:44 | 63.89612 | -22.63256 | 2457 ft | 233 kts | 244° |
| 2026-04-20 19:45 | 63.89273 | -22.66869 | 3113 ft | 244 kts | 269° |
| 2026-04-20 19:45 | 63.89313 | -22.70860 | 3513 ft | 261 kts | 269° |
| 2026-04-20 19:45 | 63.89335 | -22.75033 | 4190 ft | 264 kts | 269° |
| 2026-04-20 19:45 | 63.89532 | -22.79187 | 4897 ft | 268 kts | 289° |
| 2026-04-20 19:46 | 63.90416 | -22.82921 | 5614 ft | 271 kts | 301° |
| 2026-04-20 19:46 | 63.91416 | -22.86603 | 6243 ft | 276 kts | 301° |
| 2026-04-20 19:46 | 63.92435 | -22.90328 | 6904 ft | 280 kts | 301° |
| 2026-04-20 19:46 | 63.93473 | -22.94096 | 7528 ft | 283 kts | 301° |
| 2026-04-20 19:47 | 63.94526 | -22.97902 | 8161 ft | 286 kts | 301° |
| 2026-04-20 19:47 | 63.95592 | -23.01752 | 8779 ft | 289 kts | 301° |
| 2026-04-20 19:47 | 63.96668 | -23.05639 | 9413 ft | 292 kts | 301° |
| 2026-04-20 19:47 | 63.97756 | -23.09571 | 10043 ft | 295 kts | 301° |
| 2026-04-20 19:48 | 63.98837 | -23.13488 | 10651 ft | 298 kts | 301° |
| 2026-04-20 19:48 | 63.99953 | -23.17533 | 11046 ft | 310 kts | 301° |
| 2026-04-20 19:48 | 64.01134 | -23.21824 | 11206 ft | 329 kts | 301° |
| 2026-04-20 19:48 | 64.02378 | -23.26352 | 11451 ft | 344 kts | 301° |
| 2026-04-20 19:49 | 64.03663 | -23.31040 | 11939 ft | 350 kts | 301° |
| 2026-04-20 19:49 | 64.04956 | -23.35766 | 12580 ft | 353 kts | 301° |
| 2026-04-20 19:49 | 64.06259 | -23.40541 | 13218 ft | 355 kts | 301° |
| 2026-04-20 19:49 | 64.07568 | -23.45345 | 13867 ft | 359 kts | 301° |
| 2026-04-20 19:50 | 64.08895 | -23.50228 | 14422 ft | 364 kts | 301° |
| 2026-04-20 19:50 | 64.10233 | -23.55162 | 15032 ft | 366 kts | 301° |
| 2026-04-20 19:50 | 64.11578 | -23.60135 | 15627 ft | 369 kts | 301° |
| 2026-04-20 19:50 | 64.12932 | -23.65149 | 16224 ft | 372 kts | 300° |
| 2026-04-20 19:51 | 64.14296 | -23.70211 | 16819 ft | 375 kts | 300° |
| 2026-04-20 19:51 | 64.15668 | -23.75314 | 17392 ft | 378 kts | 300° |
| 2026-04-20 19:51 | 64.17047 | -23.80457 | 17964 ft | 380 kts | 300° |
| 2026-04-20 19:51 | 64.18434 | -23.85641 | 18520 ft | 383 kts | 300° |
| 2026-04-20 19:52 | 64.19830 | -23.90874 | 19052 ft | 386 kts | 300° |
| 2026-04-20 19:52 | 64.21236 | -23.96150 | 19523 ft | 388 kts | 300° |
| 2026-04-20 19:52 | 64.22646 | -24.01458 | 19993 ft | 391 kts | 300° |
| 2026-04-20 19:52 | 64.24064 | -24.06807 | 20458 ft | 393 kts | 299° |
| 2026-04-20 19:53 | 64.25489 | -24.12199 | 20918 ft | 396 kts | 299° |
| 2026-04-20 19:53 | 64.26921 | -24.17629 | 21382 ft | 398 kts | 299° |
| 2026-04-20 19:53 | 64.28354 | -24.23079 | 21852 ft | 400 kts | 299° |
| 2026-04-20 19:53 | 64.29799 | -24.28583 | 22279 ft | 403 kts | 298° |
| 2026-04-20 19:54 | 64.31250 | -24.34123 | 22720 ft | 405 kts | 298° |
| 2026-04-20 19:54 | 64.32706 | -24.39699 | 23149 ft | 408 kts | 298° |
| 2026-04-20 19:54 | 64.34170 | -24.45320 | 23570 ft | 410 kts | 298° |
| 2026-04-20 19:54 | 64.35643 | -24.50988 | 23985 ft | 413 kts | 298° |
| 2026-04-20 19:55 | 64.37122 | -24.56688 | 24367 ft | 415 kts | 298° |
| 2026-04-20 19:55 | 64.38610 | -24.62432 | 24710 ft | 417 kts | 298° |
| 2026-04-20 19:55 | 64.40079 | -24.68232 | 25053 ft | 418 kts | 294° |
| 2026-04-20 19:55 | 64.41087 | -24.74486 | 25400 ft | 415 kts | 284° |
| 2026-04-20 19:56 | 64.41681 | -24.78702 | 25600 ft | 418 kts | 285° |
| 2026-04-20 19:56 | 64.42898 | -24.87271 | 26036 ft | 420 kts | 285° |
| 2026-04-20 19:56 | 64.43802 | -24.93718 | 26367 ft | 422 kts | 285° |
| 2026-04-20 19:56 | 64.44708 | -25.00198 | 26692 ft | 424 kts | 284° |
| 2026-04-20 19:57 | 64.45611 | -25.06694 | 27052 ft | 424 kts | 284° |
| 2026-04-20 19:57 | 64.46515 | -25.13217 | 27385 ft | 426 kts | 284° |
| 2026-04-20 19:57 | 64.47113 | -25.17553 | 27586 ft | 427 kts | 284° |
| 2026-04-20 19:57 | 64.48321 | -25.26336 | 27995 ft | 429 kts | 284° |
| 2026-04-20 19:58 | 64.48920 | -25.30711 | 28194 ft | 430 kts | 284° |
| 2026-04-20 19:58 | 64.49826 | -25.37343 | 28489 ft | 432 kts | 284° |
| 2026-04-20 19:58 | 64.50732 | -25.44004 | 28782 ft | 433 kts | 284° |
| 2026-04-20 19:58 | 64.51931 | -25.52861 | 29158 ft | 436 kts | 283° |
| 2026-04-20 19:59 | 64.52544 | -25.57406 | 29342 ft | 437 kts | 283° |
| 2026-04-20 19:59 | 64.53743 | -25.66340 | 29721 ft | 439 kts | 283° |
| 2026-04-20 19:59 | 64.54356 | -25.70920 | 29902 ft | 440 kts | 283° |
| 2026-04-20 19:59 | 64.55263 | -25.77724 | 30168 ft | 441 kts | 283° |
| 2026-04-20 20:00 | 64.56170 | -25.84566 | 30442 ft | 443 kts | 283° |
| 2026-04-20 20:00 | 64.57077 | -25.91425 | 30699 ft | 444 kts | 283° |
| 2026-04-20 20:00 | 64.57984 | -25.98314 | 30933 ft | 445 kts | 283° |
| 2026-04-20 20:00 | 64.58887 | -26.05200 | 31240 ft | 444 kts | 283° |
| 2026-04-20 20:01 | 64.59771 | -26.11977 | 31585 ft | 442 kts | 283° |
| 2026-04-20 20:01 | 64.60659 | -26.18808 | 31977 ft | 439 kts | 282° |
| 2026-04-20 20:01 | 64.61539 | -26.25606 | 32293 ft | 438 kts | 282° |
| 2026-04-20 20:01 | 64.62414 | -26.32396 | 32599 ft | 437 kts | 282° |
| 2026-04-20 20:02 | 64.63283 | -26.39167 | 32882 ft | 435 kts | 282° |
| 2026-04-20 20:02 | 64.64147 | -26.45926 | 33163 ft | 434 kts | 282° |
| 2026-04-20 20:02 | 64.65005 | -26.52668 | 33442 ft | 433 kts | 282° |
| 2026-04-20 20:02 | 64.65858 | -26.59402 | 33715 ft | 432 kts | 282° |
| 2026-04-20 20:03 | 64.66706 | -26.66123 | 33976 ft | 431 kts | 282° |
| 2026-04-20 20:03 | 64.67550 | -26.72830 | 34234 ft | 430 kts | 282° |
| 2026-04-20 20:03 | 64.68390 | -26.79525 | 34497 ft | 429 kts | 282° |
| 2026-04-20 20:03 | 64.69226 | -26.86216 | 34708 ft | 429 kts | 281° |
| 2026-04-20 20:04 | 64.70016 | -26.92953 | 34811 ft | 428 kts | 277° |
| 2026-04-20 20:04 | 64.70644 | -26.99764 | 34986 ft | 428 kts | 278° |
| 2026-04-20 20:04 | 64.71287 | -27.06567 | 35128 ft | 429 kts | 278° |
| 2026-04-20 20:04 | 64.71938 | -27.13375 | 35279 ft | 429 kts | 278° |
| 2026-04-20 20:05 | 64.72592 | -27.20198 | 35451 ft | 429 kts | 278° |
| 2026-04-20 20:05 | 64.73242 | -27.27009 | 35623 ft | 429 kts | 278° |
| 2026-04-20 20:05 | 64.73889 | -27.33828 | 35773 ft | 429 kts | 278° |
| 2026-04-20 20:05 | 64.74533 | -27.40634 | 35908 ft | 429 kts | 278° |
| 2026-04-20 20:06 | 64.75176 | -27.47472 | 36029 ft | 429 kts | 278° |
| 2026-04-20 20:06 | 64.75815 | -27.54308 | 36156 ft | 429 kts | 278° |
| 2026-04-20 20:06 | 64.76450 | -27.61137 | 36281 ft | 430 kts | 278° |
| 2026-04-20 20:06 | 64.77084 | -27.67986 | 36393 ft | 430 kts | 278° |
| 2026-04-20 20:07 | 64.77714 | -27.74836 | 36513 ft | 430 kts | 279° |
| 2026-04-20 20:07 | 64.78341 | -27.81694 | 36615 ft | 430 kts | 279° |
| 2026-04-20 20:07 | 64.78966 | -27.88553 | 36719 ft | 431 kts | 279° |
| 2026-04-20 20:08 | 64.80213 | -28.02386 | 36814 ft | 434 kts | 279° |
| 2026-04-20 20:08 | 64.81451 | -28.16252 | 36992 ft | 434 kts | 279° |
| 2026-04-20 20:08 | 64.82064 | -28.23188 | 37097 ft | 434 kts | 279° |
| 2026-04-20 20:09 | 64.82676 | -28.30142 | 37197 ft | 435 kts | 279° |
| 2026-04-20 20:09 | 64.83881 | -28.43959 | 37372 ft | 435 kts | 279° |
| 2026-04-20 20:10 | 64.85080 | -28.57877 | 37555 ft | 434 kts | 279° |
| 2026-04-20 20:10 | 64.86266 | -28.71805 | 37714 ft | 434 kts | 279° |
| 2026-04-20 20:11 | 64.87439 | -28.85740 | 37858 ft | 434 kts | 279° |
| 2026-04-20 20:11 | 64.88598 | -28.99677 | 37986 ft | 434 kts | 279° |
| 2026-04-20 20:12 | 64.89745 | -29.13635 | 38104 ft | 434 kts | 279° |
| 2026-04-20 20:12 | 64.90878 | -29.27601 | 38244 ft | 434 kts | 279° |
| 2026-04-20 20:13 | 64.92552 | -29.48550 | 38386 ft | 433 kts | 279° |
| 2026-04-20 20:13 | 64.93650 | -29.62503 | 38581 ft | 431 kts | 279° |
| 2026-04-20 20:14 | 64.94726 | -29.76375 | 38612 ft | 431 kts | 279° |
| 2026-04-20 20:14 | 64.95792 | -29.90276 | 38621 ft | 431 kts | 279° |
| 2026-04-20 20:15 | 64.96846 | -30.04207 | 38627 ft | 431 kts | 279° |
| 2026-04-20 20:15 | 64.97888 | -30.18160 | 38620 ft | 432 kts | 279° |
| 2026-04-20 20:16 | 64.98919 | -30.32145 | 38611 ft | 432 kts | 279° |
| 2026-04-20 20:16 | 64.99937 | -30.46150 | 38611 ft | 433 kts | 278° |
| 2026-04-20 20:17 | 65.00943 | -30.60187 | 38609 ft | 433 kts | 278° |
| 2026-04-20 20:17 | 65.01936 | -30.74234 | 38609 ft | 434 kts | 278° |
| 2026-04-20 20:18 | 65.02919 | -30.88332 | 38603 ft | 434 kts | 278° |
| 2026-04-20 20:18 | 65.03882 | -31.02354 | 38611 ft | 435 kts | 278° |
| 2026-04-20 20:19 | 65.04841 | -31.16506 | 38602 ft | 435 kts | 277° |
| 2026-04-20 20:19 | 65.05797 | -31.30813 | 38030 ft | 445 kts | 277° |
| 2026-04-20 20:20 | 65.06273 | -31.38038 | 37489 ft | 444 kts | 277° |
| 2026-04-20 20:20 | 65.06747 | -31.45287 | 36971 ft | 446 kts | 277° |
| 2026-04-20 20:20 | 65.07219 | -31.52568 | 36477 ft | 448 kts | 277° |
| 2026-04-20 20:20 | 65.07691 | -31.59883 | 35986 ft | 449 kts | 276° |
| 2026-04-20 20:21 | 65.08159 | -31.67214 | 35508 ft | 450 kts | 276° |
| 2026-04-20 20:21 | 65.08626 | -31.74572 | 35037 ft | 452 kts | 276° |
| 2026-04-20 20:21 | 65.09089 | -31.81935 | 34658 ft | 452 kts | 276° |
| 2026-04-20 20:21 | 65.09551 | -31.89328 | 34581 ft | 453 kts | 275° |
| 2026-04-20 20:22 | 65.10469 | -32.04209 | 34586 ft | 457 kts | 275° |
| 2026-04-20 20:22 | 65.11369 | -32.19052 | 34598 ft | 451 kts | 275° |
| 2026-04-20 20:23 | 65.12238 | -32.33650 | 34581 ft | 445 kts | 275° |
| 2026-04-20 20:23 | 65.13092 | -32.48225 | 34581 ft | 445 kts | 275° |
| 2026-04-20 20:24 | 65.13930 | -32.62796 | 34582 ft | 445 kts | 275° |
| 2026-04-20 20:24 | 65.14755 | -32.77373 | 34576 ft | 445 kts | 275° |
| 2026-04-20 20:25 | 65.15565 | -32.91966 | 34570 ft | 445 kts | 275° |
| 2026-04-20 20:25 | 65.16361 | -33.06548 | 34571 ft | 445 kts | 275° |
| 2026-04-20 20:26 | 65.17142 | -33.21144 | 34583 ft | 445 kts | 275° |
| 2026-04-20 20:26 | 65.17906 | -33.35725 | 34547 ft | 445 kts | 278° |
| 2026-04-20 20:27 | 65.18661 | -33.50331 | 34565 ft | 450 kts | 278° |
| 2026-04-20 20:27 | 65.19409 | -33.65114 | 34565 ft | 450 kts | 278° |
| 2026-04-20 20:28 | 65.20143 | -33.79932 | 34558 ft | 450 kts | 277° |
| 2026-04-20 20:28 | 65.20860 | -33.94736 | 34555 ft | 450 kts | 277° |
| 2026-04-20 20:29 | 65.21565 | -34.09564 | 34549 ft | 451 kts | 278° |
| 2026-04-20 20:29 | 65.22255 | -34.24402 | 34548 ft | 450 kts | 277° |
| 2026-04-20 20:30 | 65.22932 | -34.39272 | 34560 ft | 454 kts | 278° |
| 2026-04-20 20:30 | 65.23603 | -34.54304 | 34528 ft | 457 kts | 279° |
| 2026-04-20 20:31 | 65.24267 | -34.69440 | 34553 ft | 461 kts | 281° |
| 2026-04-20 20:31 | 65.24923 | -34.84714 | 34549 ft | 463 kts | 281° |
| 2026-04-20 20:32 | 65.25566 | -35.00006 | 34550 ft | 463 kts | 280° |
| 2026-04-20 20:32 | 65.26190 | -35.15210 | 34548 ft | 463 kts | 280° |
| 2026-04-20 20:33 | 65.26687 | -35.30556 | 34547 ft | 466 kts | 274° |
| 2026-04-20 20:33 | 65.26792 | -35.46026 | 34527 ft | 465 kts | 276° |
| 2026-04-20 20:34 | 65.26956 | -35.61488 | 34547 ft | 466 kts | 276° |
| 2026-04-20 20:34 | 65.27117 | -35.76938 | 34547 ft | 465 kts | 276° |
| 2026-04-20 20:35 | 65.27263 | -35.92387 | 34545 ft | 463 kts | 275° |
| 2026-04-20 20:35 | 65.27392 | -36.07728 | 34547 ft | 462 kts | 275° |
| 2026-04-20 20:36 | 65.27506 | -36.23066 | 34536 ft | 462 kts | 275° |
| 2026-04-20 20:36 | 65.27604 | -36.38427 | 34541 ft | 462 kts | 275° |
| 2026-04-20 20:37 | 65.27686 | -36.53779 | 34547 ft | 462 kts | 275° |
| 2026-04-20 20:37 | 65.27753 | -36.69136 | 34539 ft | 462 kts | 275° |
| 2026-04-20 20:38 | 65.27804 | -36.84486 | 34541 ft | 462 kts | 275° |
| 2026-04-20 20:38 | 65.27840 | -36.99754 | 34546 ft | 462 kts | 274° |
| 2026-04-20 20:39 | 65.27860 | -37.15107 | 34538 ft | 463 kts | 274° |
| 2026-04-20 20:39 | 65.27864 | -37.30474 | 34525 ft | 463 kts | 274° |
| 2026-04-20 20:40 | 65.27853 | -37.45849 | 34513 ft | 463 kts | 274° |
| 2026-04-20 20:40 | 65.27826 | -37.61220 | 34531 ft | 462 kts | 273° |
| 2026-04-20 20:41 | 65.27784 | -37.76568 | 34535 ft | 462 kts | 273° |
| 2026-04-20 20:41 | 65.27725 | -37.91937 | 34514 ft | 463 kts | 272° |
| 2026-04-20 20:42 | 65.27665 | -38.04709 | 34524 ft | 463 kts | 272° |
| 2026-04-20 20:42 | 65.27562 | -38.22579 | 34531 ft | 463 kts | 272° |
| 2026-04-20 20:43 | 65.27475 | -38.35445 | 34522 ft | 463 kts | 272° |
| 2026-04-20 20:43 | 65.27337 | -38.53305 | 34517 ft | 463 kts | 271° |
| 2026-04-20 20:44 | 65.27223 | -38.66129 | 34536 ft | 457 kts | 271° |
| 2026-04-20 20:44 | 65.27077 | -38.81223 | 34531 ft | 453 kts | 270° |
| 2026-04-20 20:45 | 65.26915 | -38.96297 | 34530 ft | 454 kts | 270° |
| 2026-04-20 20:45 | 65.26740 | -39.11264 | 34530 ft | 454 kts | 270° |
| 2026-04-20 20:46 | 65.26548 | -39.26325 | 34537 ft | 454 kts | 270° |
| 2026-04-20 20:46 | 65.26342 | -39.41395 | 34538 ft | 454 kts | 270° |
| 2026-04-20 20:47 | 65.26120 | -39.56451 | 34530 ft | 454 kts | 270° |
| 2026-04-20 20:47 | 65.25884 | -39.71475 | 34541 ft | 452 kts | 269° |
| 2026-04-20 20:48 | 65.25633 | -39.86488 | 34538 ft | 452 kts | 269° |
| 2026-04-20 20:48 | 65.25367 | -40.01469 | 34549 ft | 450 kts | 269° |
| 2026-04-20 20:49 | 65.25090 | -40.16298 | 34547 ft | 446 kts | 269° |
| 2026-04-20 20:49 | 65.24799 | -40.31092 | 34550 ft | 447 kts | 269° |
| 2026-04-20 20:50 | 65.24492 | -40.45892 | 34548 ft | 446 kts | 268° |
| 2026-04-20 20:50 | 65.24172 | -40.60679 | 34549 ft | 447 kts | 268° |
| 2026-04-20 20:51 | 65.23837 | -40.75472 | 34547 ft | 446 kts | 268° |
| 2026-04-20 20:51 | 65.23487 | -40.90258 | 34551 ft | 446 kts | 268° |
| 2026-04-20 20:52 | 65.23123 | -41.05043 | 34551 ft | 446 kts | 268° |
| 2026-04-20 20:52 | 65.22744 | -41.19818 | 34551 ft | 446 kts | 267° |
| 2026-04-20 20:53 | 65.22351 | -41.34582 | 34556 ft | 446 kts | 268° |
| 2026-04-20 20:53 | 65.21947 | -41.49238 | 34552 ft | 441 kts | 268° |
| 2026-04-20 20:54 | 65.21530 | -41.63824 | 34557 ft | 441 kts | 267° |
| 2026-04-20 20:54 | 65.21099 | -41.78419 | 34560 ft | 441 kts | 268° |
| 2026-04-20 20:55 | 65.20654 | -41.92986 | 34558 ft | 441 kts | 267° |
| 2026-04-20 20:55 | 65.20195 | -42.07570 | 34572 ft | 442 kts | 267° |
| 2026-04-20 20:56 | 65.19721 | -42.22133 | 34568 ft | 441 kts | 267° |
| 2026-04-20 20:56 | 65.19237 | -42.36624 | 34570 ft | 441 kts | 267° |
| 2026-04-20 20:57 | 65.18732 | -42.51268 | 34572 ft | 441 kts | 267° |
| 2026-04-20 20:57 | 65.18216 | -42.65831 | 34574 ft | 441 kts | 267° |
| 2026-04-20 20:58 | 65.17691 | -42.80245 | 34570 ft | 440 kts | 266° |
| 2026-04-20 20:58 | 65.17150 | -42.94742 | 34564 ft | 438 kts | 266° |
| 2026-04-20 20:59 | 65.16601 | -43.09212 | 34572 ft | 441 kts | 266° |
| 2026-04-20 20:59 | 65.16038 | -43.23711 | 34559 ft | 438 kts | 267° |
| 2026-04-20 21:00 | 65.15463 | -43.38166 | 34560 ft | 440 kts | 265° |
| 2026-04-20 21:00 | 65.14876 | -43.52616 | 34551 ft | 438 kts | 266° |
| 2026-04-20 21:01 | 65.14274 | -43.67092 | 34557 ft | 441 kts | 266° |
| 2026-04-20 21:01 | 65.13798 | -43.81512 | 34519 ft | 436 kts | 267° |
| 2026-04-20 21:02 | 65.13383 | -43.95932 | 34528 ft | 437 kts | 268° |
| 2026-04-20 21:02 | 65.12960 | -44.10210 | 34511 ft | 431 kts | 266° |
| 2026-04-20 21:03 | 65.12526 | -44.24420 | 34478 ft | 431 kts | 267° |
| 2026-04-20 21:03 | 65.12081 | -44.38524 | 34462 ft | 429 kts | 266° |
| 2026-04-20 21:04 | 65.11619 | -44.52726 | 34469 ft | 431 kts | 266° |
| 2026-04-20 21:04 | 65.11150 | -44.66769 | 34379 ft | 431 kts | 266° |
| 2026-04-20 21:05 | 65.10660 | -44.80981 | 34413 ft | 430 kts | 265° |
| 2026-04-20 21:05 | 65.10164 | -44.95034 | 34384 ft | 428 kts | 265° |
| 2026-04-20 21:06 | 65.09652 | -45.09135 | 34306 ft | 426 kts | 265° |
| 2026-04-20 21:06 | 65.09130 | -45.23135 | 34290 ft | 428 kts | 265° |
| 2026-04-20 21:07 | 65.08593 | -45.37199 | 34320 ft | 426 kts | 264° |
| 2026-04-20 21:07 | 65.08046 | -45.51159 | 34245 ft | 426 kts | 263° |
| 2026-04-20 21:08 | 65.07488 | -45.65092 | 34222 ft | 422 kts | 263° |
| 2026-04-20 21:08 | 65.06918 | -45.78967 | 34242 ft | 425 kts | 263° |
| 2026-04-20 21:09 | 65.06333 | -45.92882 | 34213 ft | 422 kts | 263° |
| 2026-04-20 21:09 | 65.05736 | -46.06796 | 34226 ft | 426 kts | 262° |
| 2026-04-20 21:10 | 65.05125 | -46.20704 | 34196 ft | 423 kts | 262° |
| 2026-04-20 21:10 | 65.04500 | -46.34639 | 34209 ft | 426 kts | 262° |
| 2026-04-20 21:11 | 65.03866 | -46.48499 | 34199 ft | 423 kts | 262° |
| 2026-04-20 21:11 | 65.03221 | -46.62307 | 34208 ft | 425 kts | 261° |
| 2026-04-20 21:12 | 65.02563 | -46.76107 | 34180 ft | 423 kts | 261° |
| 2026-04-20 21:12 | 65.01884 | -46.90049 | 34179 ft | 423 kts | 261° |
| 2026-04-20 21:13 | 65.01206 | -47.03731 | 34170 ft | 423 kts | 261° |
| 2026-04-20 21:13 | 65.00507 | -47.17570 | 34154 ft | 422 kts | 260° |
| 2026-04-20 21:14 | 64.99798 | -47.31356 | 34150 ft | 424 kts | 260° |
| 2026-04-20 21:14 | 64.99443 | -47.38161 | 34151 ft | 410 kts | 260° |
| 2026-04-20 21:14 | 64.99098 | -47.44718 | 34112 ft | 395 kts | 260° |
| 2026-04-20 21:15 | 64.98760 | -47.51092 | 33715 ft | 389 kts | 260° |
| 2026-04-20 21:15 | 64.98420 | -47.57427 | 33196 ft | 387 kts | 260° |
| 2026-04-20 21:15 | 64.98081 | -47.63714 | 32714 ft | 384 kts | 260° |
| 2026-04-20 21:15 | 64.97742 | -47.69934 | 32266 ft | 380 kts | 259° |
| 2026-04-20 21:16 | 64.97405 | -47.76103 | 31816 ft | 377 kts | 259° |
| 2026-04-20 21:16 | 64.97063 | -47.82277 | 31372 ft | 382 kts | 258° |
| 2026-04-20 21:16 | 64.96716 | -47.88510 | 30969 ft | 384 kts | 258° |
| 2026-04-20 21:16 | 64.96366 | -47.94734 | 30516 ft | 381 kts | 259° |
| 2026-04-20 21:17 | 64.96016 | -48.00927 | 30015 ft | 380 kts | 258° |
| 2026-04-20 21:17 | 64.95667 | -48.07078 | 29518 ft | 377 kts | 258° |
| 2026-04-20 21:17 | 64.95317 | -48.13176 | 29084 ft | 373 kts | 258° |
| 2026-04-20 21:17 | 64.94967 | -48.19214 | 28683 ft | 369 kts | 257° |
| 2026-04-20 21:18 | 64.94619 | -48.25187 | 28266 ft | 366 kts | 258° |
| 2026-04-20 21:18 | 64.94271 | -48.31118 | 27866 ft | 363 kts | 257° |
| 2026-04-20 21:18 | 64.93925 | -48.36979 | 27470 ft | 359 kts | 257° |
| 2026-04-20 21:18 | 64.93579 | -48.42805 | 27087 ft | 356 kts | 256° |
| 2026-04-20 21:19 | 64.93233 | -48.48574 | 26694 ft | 353 kts | 256° |
| 2026-04-20 21:19 | 64.92890 | -48.54275 | 26324 ft | 350 kts | 256° |
| 2026-04-20 21:19 | 64.92547 | -48.59931 | 25962 ft | 347 kts | 256° |
| 2026-04-20 21:20 | 64.91861 | -48.71125 | 25215 ft | 342 kts | 256° |
| 2026-04-20 21:20 | 64.91521 | -48.76609 | 24868 ft | 346 kts | 255° |
| 2026-04-20 21:20 | 64.91170 | -48.82250 | 24506 ft | 351 kts | 255° |
| 2026-04-20 21:20 | 64.90813 | -48.87948 | 24145 ft | 352 kts | 255° |
| 2026-04-20 21:21 | 64.90454 | -48.93635 | 23788 ft | 351 kts | 255° |
| 2026-04-20 21:21 | 64.90095 | -48.99314 | 23412 ft | 349 kts | 254° |
| 2026-04-20 21:21 | 64.89734 | -49.04959 | 23004 ft | 347 kts | 254° |
| 2026-04-20 21:21 | 64.89376 | -49.10549 | 22635 ft | 344 kts | 254° |
| 2026-04-20 21:22 | 64.89013 | -49.16160 | 22293 ft | 341 kts | 253° |
| 2026-04-20 21:22 | 64.88657 | -49.21648 | 21902 ft | 338 kts | 253° |
| 2026-04-20 21:22 | 64.88305 | -49.27021 | 21564 ft | 335 kts | 253° |
| 2026-04-20 21:22 | 64.87952 | -49.32404 | 21226 ft | 332 kts | 253° |
| 2026-04-20 21:23 | 64.87599 | -49.37737 | 20890 ft | 328 kts | 253° |
| 2026-04-20 21:23 | 64.87249 | -49.43018 | 20566 ft | 325 kts | 253° |
| 2026-04-20 21:23 | 64.86902 | -49.48241 | 20245 ft | 322 kts | 253° |
| 2026-04-20 21:23 | 64.86556 | -49.53412 | 19923 ft | 319 kts | 253° |
| 2026-04-20 21:24 | 64.86212 | -49.58540 | 19607 ft | 316 kts | 253° |
| 2026-04-20 21:24 | 64.85864 | -49.63689 | 19243 ft | 313 kts | 253° |
| 2026-04-20 21:24 | 64.85522 | -49.68725 | 18934 ft | 311 kts | 253° |
| 2026-04-20 21:24 | 64.85182 | -49.73716 | 18624 ft | 308 kts | 253° |
| 2026-04-20 21:25 | 64.84846 | -49.78611 | 18322 ft | 305 kts | 253° |
| 2026-04-20 21:25 | 64.84509 | -49.83514 | 17979 ft | 303 kts | 253° |
| 2026-04-20 21:25 | 64.84168 | -49.88441 | 17657 ft | 299 kts | 253° |
| 2026-04-20 21:25 | 64.83839 | -49.93180 | 17342 ft | 296 kts | 253° |
| 2026-04-20 21:26 | 64.83505 | -49.97927 | 17047 ft | 292 kts | 251° |
| 2026-04-20 21:26 | 64.82866 | -50.02370 | 16721 ft | 286 kts | 237° |
| 2026-04-20 21:26 | 64.82008 | -50.06610 | 16419 ft | 290 kts | 238° |
| 2026-04-20 21:26 | 64.81151 | -50.10898 | 16147 ft | 290 kts | 238° |
| 2026-04-20 21:27 | 64.80290 | -50.15184 | 15864 ft | 289 kts | 238° |
| 2026-04-20 21:27 | 64.79435 | -50.19434 | 15580 ft | 286 kts | 238° |
| 2026-04-20 21:27 | 64.78587 | -50.23640 | 15299 ft | 283 kts | 238° |
| 2026-04-20 21:27 | 64.77747 | -50.27798 | 14982 ft | 281 kts | 238° |
| 2026-04-20 21:28 | 64.76914 | -50.31909 | 14696 ft | 277 kts | 238° |
| 2026-04-20 21:28 | 64.76092 | -50.35960 | 14446 ft | 273 kts | 238° |
| 2026-04-20 21:28 | 64.75279 | -50.39958 | 14173 ft | 270 kts | 238° |
| 2026-04-20 21:28 | 64.74472 | -50.43918 | 13895 ft | 267 kts | 239° |
| 2026-04-20 21:29 | 64.73943 | -50.46512 | 13730 ft | 266 kts | 238° |
| 2026-04-20 21:29 | 64.73145 | -50.50414 | 13400 ft | 268 kts | 238° |
| 2026-04-20 21:29 | 64.72331 | -50.54386 | 13120 ft | 273 kts | 238° |
| 2026-04-20 21:29 | 64.71504 | -50.58411 | 12879 ft | 275 kts | 238° |
| 2026-04-20 21:30 | 64.70678 | -50.62433 | 12578 ft | 274 kts | 238° |
| 2026-04-20 21:30 | 64.69853 | -50.66442 | 12294 ft | 273 kts | 238° |
| 2026-04-20 21:30 | 64.69031 | -50.70426 | 11999 ft | 271 kts | 237° |
| 2026-04-20 21:30 | 64.68211 | -50.74392 | 11738 ft | 270 kts | 237° |
| 2026-04-20 21:31 | 64.67394 | -50.78333 | 11460 ft | 269 kts | 237° |
| 2026-04-20 21:31 | 64.66579 | -50.82264 | 11205 ft | 268 kts | 236° |
| 2026-04-20 21:31 | 64.65766 | -50.86175 | 10919 ft | 268 kts | 236° |
| 2026-04-20 21:31 | 64.64952 | -50.90083 | 10633 ft | 267 kts | 236° |
| 2026-04-20 21:32 | 64.64139 | -50.93976 | 10405 ft | 266 kts | 236° |
| 2026-04-20 21:32 | 64.63342 | -50.97790 | 10267 ft | 257 kts | 236° |
| 2026-04-20 21:32 | 64.62572 | -51.01471 | 10161 ft | 248 kts | 236° |
| 2026-04-20 21:32 | 64.61825 | -51.05036 | 9976 ft | 243 kts | 235° |
| 2026-04-20 21:33 | 64.61081 | -51.08577 | 9743 ft | 243 kts | 235° |
| 2026-04-20 21:33 | 64.60336 | -51.12113 | 9374 ft | 243 kts | 235° |
| 2026-04-20 21:33 | 64.59594 | -51.15625 | 9103 ft | 239 kts | 234° |
| 2026-04-20 21:33 | 64.58868 | -51.19062 | 8859 ft | 234 kts | 234° |
| 2026-04-20 21:34 | 64.58155 | -51.22429 | 8635 ft | 232 kts | 234° |
| 2026-04-20 21:34 | 64.57431 | -51.25848 | 8387 ft | 239 kts | 234° |
| 2026-04-20 21:34 | 64.56688 | -51.29353 | 8134 ft | 243 kts | 234° |
| 2026-04-20 21:34 | 64.55942 | -51.32868 | 7871 ft | 243 kts | 234° |
| 2026-04-20 21:35 | 64.55192 | -51.36392 | 7612 ft | 243 kts | 234° |
| 2026-04-20 21:35 | 64.54405 | -51.39828 | 7369 ft | 235 kts | 224° |
| 2026-04-20 21:35 | 64.53185 | -51.42076 | 7058 ft | 220 kts | 198° |
| 2026-04-20 21:35 | 64.51778 | -51.43332 | 6822 ft | 215 kts | 197° |
| 2026-04-20 21:36 | 64.50384 | -51.44524 | 6578 ft | 212 kts | 195° |
| 2026-04-20 21:36 | 64.49005 | -51.45649 | 6324 ft | 208 kts | 195° |
| 2026-04-20 21:36 | 64.47666 | -51.46715 | 6138 ft | 202 kts | 191° |
| 2026-04-20 21:36 | 64.46346 | -51.47741 | 5888 ft | 198 kts | 190° |
| 2026-04-20 21:37 | 64.45049 | -51.48732 | 5627 ft | 194 kts | 190° |
| 2026-04-20 21:37 | 64.43779 | -51.49693 | 5390 ft | 190 kts | 190° |
| 2026-04-20 21:37 | 64.42520 | -51.50639 | 5157 ft | 185 kts | 189° |
| 2026-04-20 21:37 | 64.41331 | -51.51528 | 4936 ft | 180 kts | 189° |
| 2026-04-20 21:38 | 64.40152 | -51.52408 | 4664 ft | 177 kts | 189° |
| 2026-04-20 21:38 | 64.38981 | -51.53280 | 4387 ft | 178 kts | 190° |
| 2026-04-20 21:38 | 64.37782 | -51.54171 | 4150 ft | 183 kts | 191° |
| 2026-04-20 21:38 | 64.36563 | -51.55075 | 3904 ft | 186 kts | 191° |
| 2026-04-20 21:39 | 64.35323 | -51.55994 | 3645 ft | 188 kts | 192° |
| 2026-04-20 21:39 | 64.34065 | -51.56921 | 3372 ft | 191 kts | 191° |
| 2026-04-20 21:39 | 64.32777 | -51.57776 | 3063 ft | 194 kts | 191° |
| 2026-04-20 21:39 | 64.31479 | -51.58673 | 2818 ft | 196 kts | 193° |
| 2026-04-20 21:40 | 64.30187 | -51.59623 | 2550 ft | 192 kts | 194° |
| 2026-04-20 21:40 | 64.28925 | -51.60569 | 2245 ft | 188 kts | 194° |
| 2026-04-20 21:40 | 64.27696 | -51.61492 | 1969 ft | 184 kts | 195° |
| 2026-04-20 21:40 | 64.26502 | -51.62389 | 1721 ft | 173 kts | 195° |
| 2026-04-20 21:41 | 64.25389 | -51.63221 | 1472 ft | 166 kts | 195° |
| 2026-04-20 21:41 | 64.24316 | -51.64023 | 1217 ft | 160 kts | 195° |
| 2026-04-20 21:41 | 64.23287 | -51.64803 | 1028 ft | 149 kts | 196° |
| 2026-04-20 21:41 | 64.22305 | -51.65571 | 790 ft | 150 kts | 196° |
| 2026-04-20 21:42 | 64.21317 | -51.66289 | 573 ft | 147 kts | 196° |
| 2026-04-20 21:42 | 64.20338 | -51.67005 | 384 ft | 149 kts | 197° |
| 2026-04-20 21:42 | 64.19410 | -51.67699 | 282 ft | 120 kts | 198° |
| 2026-04-20 21:42 | 64.18850 | -51.68113 | 284 ft | 50 kts | 198° |
| 2026-04-20 21:43 | 64.18683 | -51.68229 | 287 ft | 11 kts | 179° |
| 2026-04-20 21:43 | 64.18644 | -51.68111 | 288 ft | 11 kts | 110° |
| 2026-04-20 21:43 | 64.18623 | -51.67962 | 286 ft | 5 kts | 111° |
| 2026-04-20 21:43 | 64.18592 | -51.67926 | 285 ft | 6 kts | 181° |
| 2026-04-20 21:44 | 64.18550 | -51.67951 | 286 ft | 5 kts | 186° |
| 2026-04-20 21:44 | 64.18529 | -51.67899 | 284 ft | 5 kts | 111° |
| 2026-04-20 21:44 | 64.18519 | -51.67830 | 284 ft | 0 kts | 108° |